EmailTwitter


Surface observations / United Kingdom / EGLL (03772)

Regions: Quebec | Canada | USA | Europe | France | UK | Elsewhere
Station
Display
Info & Location for EGLL (03772) | Help decoding METAR

Weather Conditions observed on 2020/08/05 at 01:50 UTC at LONDON/HEATHROW, UK (EGLL)

Temperature: 16.0 Celsius.

Dewpoint: 13.0 Celsius.

Relative Humidity: 82%

Winds: Southwest at 17 km/h or 9 knots.

Mean Sea level Pressure: 101.30 kilopascals.

Horizontal visibility: 6.21 statute miles or 9.94 kilometers.

Coded METAR:

EGLL 050150Z AUTO 21009KT 9999 NCD 16/13 Q1013 NOSIG=